Time;durP1;ratioP1;P1;durP2;ratioP2;P2;SDS_P1;SDS_P2;PMS_P1;PMS_P2;Temp;Humidity;BMP_temperature;BMP_pressure;BME280_temperature;BME280_humidity;BME280_pressure;Samples;Min_cycle;Max_cycle;Signal;HPM_P1;HPM_P2
2019/07/02 00:03:01;;;;;;;11.9;8.4;;;;;;;-144.8;100;1148.844;;;;
2019/07/02 00:06:12;;;;;;;12.1;9.2;;;;;;;-144.8;100;1148.844;;;;
2019/07/02 00:09:22;;;;;;;9.9;8.2;;;;;;;-144.8;100;1148.844;;;;
2019/07/02 00:12:33;;;;;;;10.2;7.7;;;;;;;-144.8;100;1148.844;;;;
2019/07/02 00:15:43;;;;;;;10.5;8.2;;;;;;;-144.8;100;1148.844;;;;
2019/07/02 00:18:54;;;;;;;13.5;8.8;;;;;;;-144.8;100;1148.844;;;;
2019/07/02 00:22:05;;;;;;;14.1;9.2;;;;;;;-144.8;100;1148.844;;;;
2019/07/02 00:25:15;;;;;;;10.3;8.6;;;;;;;-144.8;100;1148.844;;;;
2019/07/02 00:28:26;;;;;;;13.9;9.6;;;;;;;-144.8;100;1148.844;;;;
2019/07/02 00:31:36;;;;;;;14;9.5;;;;;;;-144.8;100;1148.844;;;;
2019/07/02 00:34:47;;;;;;;11.5;8.6;;;;;;;-144.8;100;1148.844;;;;
2019/07/02 00:37:57;;;;;;;14.3;9.7;;;;;;;-144.8;100;1148.844;;;;
2019/07/02 00:41:08;;;;;;;11.1;8.9;;;;;;;-144.8;100;1148.844;;;;
2019/07/02 00:44:18;;;;;;;12.5;8.9;;;;;;;-144.8;100;1148.844;;;;
2019/07/02 00:47:29;;;;;;;12.6;9.4;;;;;;;-144.8;100;1148.844;;;;
2019/07/02 00:50:39;;;;;;;13.6;9.9;;;;;;;-144.8;100;1148.844;;;;
2019/07/02 00:53:50;;;;;;;13.8;10.1;;;;;;;-144.8;100;1148.844;;;;
2019/07/02 00:57:01;;;;;;;13.8;10.2;;;;;;;-144.8;100;1148.844;;;;
2019/07/02 01:00:16;;;;;;;14.7;11;;;;;;;-144.8;100;1148.844;;;;
2019/07/02 01:03:27;;;;;;;13.5;10.9;;;;;;;-144.8;100;1148.844;;;;
2019/07/02 01:06:38;;;;;;;16.4;10.8;;;;;;;-144.8;100;1148.844;;;;
2019/07/02 01:09:48;;;;;;;15.6;11.7;;;;;;;-144.8;100;1148.844;;;;
2019/07/02 01:12:59;;;;;;;15;10.1;;;;;;;-144.8;100;1148.844;;;;
2019/07/02 01:16:09;;;;;;;13.6;10.4;;;;;;;-144.8;100;1148.844;;;;
2019/07/02 01:19:20;;;;;;;15;10.9;;;;;;;-144.8;100;1148.844;;;;
2019/07/02 01:22:31;;;;;;;17.2;12;;;;;;;-144.8;100;1148.844;;;;
2019/07/02 01:25:41;;;;;;;16.2;11.6;;;;;;;-144.8;100;1148.844;;;;
2019/07/02 01:28:52;;;;;;;17.9;11.4;;;;;;;-144.8;100;1148.844;;;;
2019/07/02 01:32:03;;;;;;;15.8;11.3;;;;;;;-144.8;100;1148.844;;;;
2019/07/02 01:35:13;;;;;;;15.2;10.6;;;;;;;-144.8;100;1148.844;;;;
2019/07/02 01:38:24;;;;;;;19;11.1;;;;;;;-144.8;100;1148.844;;;;
2019/07/02 01:41:35;;;;;;;16.1;10.6;;;;;;;-144.8;100;1148.844;;;;
2019/07/02 01:44:45;;;;;;;16.5;11;;;;;;;-144.8;100;1148.844;;;;
2019/07/02 01:47:56;;;;;;;15.9;12.7;;;;;;;-144.8;100;1148.844;;;;
2019/07/02 01:51:06;;;;;;;15.9;11.6;;;;;;;-144.8;100;1148.844;;;;
2019/07/02 01:54:17;;;;;;;17.7;11;;;;;;;-144.8;100;1148.844;;;;
2019/07/02 01:57:27;;;;;;;15.1;10.1;;;;;;;-144.8;100;1148.844;;;;
2019/07/02 02:00:38;;;;;;;14.3;10.2;;;;;;;-144.8;100;1148.844;;;;
2019/07/02 02:03:49;;;;;;;13.1;10.9;;;;;;;-144.8;100;1148.844;;;;
2019/07/02 02:06:59;;;;;;;13.7;11.6;;;;;;;-144.8;100;1148.844;;;;
2019/07/02 02:10:10;;;;;;;17.3;11.4;;;;;;;-144.8;100;1148.844;;;;
2019/07/02 02:13:21;;;;;;;14.7;11.8;;;;;;;-144.8;100;1148.844;;;;
2019/07/02 02:16:31;;;;;;;15.3;11.5;;;;;;;-144.8;100;1148.844;;;;
2019/07/02 02:19:42;;;;;;;14.3;11.9;;;;;;;-144.8;100;1148.844;;;;
2019/07/02 02:22:52;;;;;;;15.9;12.3;;;;;;;-144.8;100;1148.844;;;;
2019/07/02 02:26:03;;;;;;;14.4;10.6;;;;;;;-144.8;100;1148.844;;;;
2019/07/02 02:29:13;;;;;;;12.1;10.1;;;;;;;-144.8;100;1148.844;;;;
2019/07/02 02:32:24;;;;;;;13.7;10.8;;;;;;;-144.8;100;1148.844;;;;
2019/07/02 02:35:34;;;;;;;16.5;11.7;;;;;;;-144.8;100;1148.844;;;;
2019/07/02 02:38:45;;;;;;;17.6;10.3;;;;;;;-144.8;100;1148.844;;;;
2019/07/02 02:41:55;;;;;;;14;10.4;;;;;;;-144.8;100;1148.844;;;;
2019/07/02 02:45:06;;;;;;;13.8;10.4;;;;;;;-144.8;100;1148.844;;;;
2019/07/02 02:48:17;;;;;;;17.6;11.6;;;;;;;-144.8;100;1148.844;;;;
2019/07/02 02:51:27;;;;;;;13.1;10.6;;;;;;;-144.8;100;1148.844;;;;
2019/07/02 02:54:38;;;;;;;14.2;10.2;;;;;;;-144.8;100;1148.844;;;;
2019/07/02 02:57:49;;;;;;;13.6;10.7;;;;;;;-144.8;100;1148.844;;;;
2019/07/02 03:00:59;;;;;;;14.2;11.4;;;;;;;-144.8;100;1148.844;;;;
2019/07/02 03:04:10;;;;;;;14.1;11.3;;;;;;;-144.8;100;1148.844;;;;
2019/07/02 03:07:20;;;;;;;16.2;11.1;;;;;;;-144.8;100;1148.844;;;;
2019/07/02 03:10:31;;;;;;;22.3;13;;;;;;;-144.8;100;1148.844;;;;
2019/07/02 03:13:41;;;;;;;14.8;10.3;;;;;;;-144.8;100;1148.844;;;;
2019/07/02 03:16:51;;;;;;;14.9;9.8;;;;;;;-144.8;100;1148.844;;;;
2019/07/02 03:20:02;;;;;;;15.3;10.3;;;;;;;-144.8;100;1148.844;;;;
2019/07/02 03:23:13;;;;;;;15.1;11;;;;;;;-144.8;100;1148.844;;;;
2019/07/02 03:26:24;;;;;;;15.4;9.4;;;;;;;-144.8;100;1148.844;;;;
2019/07/02 03:29:34;;;;;;;13.8;10.1;;;;;;;-144.8;100;1148.844;;;;
2019/07/02 03:32:45;;;;;;;13.7;9;;;;;;;-144.8;100;1148.844;;;;
2019/07/02 03:35:55;;;;;;;13.2;8.9;;;;;;;-144.8;100;1148.844;;;;
2019/07/02 03:39:06;;;;;;;11.9;8.1;;;;;;;-144.8;100;1148.844;;;;
2019/07/02 03:42:16;;;;;;;11.2;7.1;;;;;;;-144.8;100;1148.844;;;;
2019/07/02 03:45:26;;;;;;;11.7;7.5;;;;;;;-144.8;100;1148.844;;;;
2019/07/02 03:48:37;;;;;;;14;7.9;;;;;;;-144.8;100;1148.844;;;;
2019/07/02 03:51:48;;;;;;;8.5;6.9;;;;;;;-144.8;100;1148.844;;;;
2019/07/02 03:54:58;;;;;;;12.3;8.1;;;;;;;-144.8;100;1148.844;;;;
2019/07/02 03:58:09;;;;;;;11.4;6.7;;;;;;;-144.8;100;1148.844;;;;
2019/07/02 04:01:19;;;;;;;9.7;6.1;;;;;;;-144.8;100;1148.844;;;;
2019/07/02 04:04:30;;;;;;;8.5;6.9;;;;;;;-144.8;100;1148.844;;;;
2019/07/02 04:07:40;;;;;;;11.6;7.3;;;;;;;-144.8;100;1148.844;;;;
2019/07/02 04:10:51;;;;;;;8.8;6.9;;;;;;;-144.8;100;1148.844;;;;
2019/07/02 04:14:01;;;;;;;8.6;6.2;;;;;;;-144.8;100;1148.844;;;;
2019/07/02 04:17:12;;;;;;;9.9;6;;;;;;;-144.8;100;1148.844;;;;
2019/07/02 04:20:23;;;;;;;9.8;6.4;;;;;;;-144.8;100;1148.844;;;;
2019/07/02 04:23:33;;;;;;;10.6;7.2;;;;;;;-144.8;100;1148.844;;;;
2019/07/02 04:26:44;;;;;;;11.9;6.4;;;;;;;-144.8;100;1148.844;;;;
2019/07/02 04:29:55;;;;;;;9;6.6;;;;;;;-144.8;100;1148.844;;;;
2019/07/02 04:33:05;;;;;;;9.2;6.9;;;;;;;-144.8;100;1148.844;;;;
2019/07/02 04:36:16;;;;;;;10.5;7.2;;;;;;;-144.8;100;1148.844;;;;
2019/07/02 04:39:26;;;;;;;11.5;7.4;;;;;;;-144.8;100;1148.844;;;;
2019/07/02 04:42:37;;;;;;;11;6.7;;;;;;;-144.8;100;1148.844;;;;
2019/07/02 04:45:48;;;;;;;11.9;6.6;;;;;;;-144.8;100;1148.844;;;;
2019/07/02 04:48:58;;;;;;;10.4;6.9;;;;;;;-144.8;100;1148.844;;;;
2019/07/02 04:52:09;;;;;;;13.6;8;;;;;;;-144.8;100;1148.844;;;;
2019/07/02 04:55:19;;;;;;;12.3;6.9;;;;;;;-144.8;100;1148.844;;;;
2019/07/02 04:58:30;;;;;;;12.5;7.2;;;;;;;-144.8;100;1148.844;;;;
2019/07/02 05:01:41;;;;;;;12.2;9.4;;;;;;;-144.8;100;1148.844;;;;
2019/07/02 05:04:51;;;;;;;11.9;9.8;;;;;;;-144.8;100;1148.844;;;;
2019/07/02 05:08:02;;;;;;;12.3;10.1;;;;;;;-144.8;100;1148.844;;;;
2019/07/02 05:11:15;;;;;;;15.2;9.8;;;;;;;-144.8;100;1148.844;;;;
2019/07/02 05:14:28;;;;;;;14.8;10.1;;;;;;;-144.8;100;1148.844;;;;
2019/07/02 05:17:38;;;;;;;12.3;8.7;;;;;;;-144.8;100;1148.844;;;;
2019/07/02 05:20:49;;;;;;;11.8;7.7;;;;;;;-144.8;100;1148.844;;;;
2019/07/02 05:23:59;;;;;;;10;6.3;;;;;;;-144.8;100;1148.844;;;;
2019/07/02 05:27:09;;;;;;;12.1;7.2;;;;;;;-144.8;100;1148.844;;;;
2019/07/02 05:30:20;;;;;;;13.1;6.5;;;;;;;-144.8;100;1148.844;;;;
2019/07/02 05:33:31;;;;;;;10.6;6.4;;;;;;;-144.8;100;1148.844;;;;
2019/07/02 05:36:41;;;;;;;11.1;6;;;;;;;-144.8;100;1148.844;;;;
2019/07/02 05:39:52;;;;;;;10.9;6;;;;;;;-144.8;100;1148.844;;;;
2019/07/02 05:43:02;;;;;;;10.9;6;;;;;;;-144.8;100;1148.844;;;;
2019/07/02 05:46:13;;;;;;;9.9;5.9;;;;;;;-144.8;100;1148.844;;;;
2019/07/02 05:49:23;;;;;;;8.6;5.1;;;;;;;-144.8;100;1148.844;;;;
2019/07/02 05:52:34;;;;;;;9.7;6.1;;;;;;;-144.8;100;1148.844;;;;
2019/07/02 05:55:45;;;;;;;10;5.4;;;;;;;-144.8;100;1148.844;;;;
2019/07/02 05:58:55;;;;;;;10.2;5.9;;;;;;;-144.8;100;1148.844;;;;
2019/07/02 06:02:06;;;;;;;7.7;5;;;;;;;-144.8;100;1148.844;;;;
2019/07/02 06:05:17;;;;;;;9.7;5.2;;;;;;;-144.8;100;1148.844;;;;
2019/07/02 06:08:27;;;;;;;9.2;5.3;;;;;;;-144.8;100;1148.844;;;;
2019/07/02 06:11:38;;;;;;;10;5.6;;;;;;;-144.8;100;1148.844;;;;
2019/07/02 06:14:48;;;;;;;8;5;;;;;;;-144.8;100;1148.844;;;;
2019/07/02 06:17:59;;;;;;;8.7;4.8;;;;;;;-144.8;100;1148.844;;;;
2019/07/02 06:21:10;;;;;;;11.1;5.7;;;;;;;-144.8;100;1148.844;;;;
2019/07/02 06:24:20;;;;;;;9.3;5.1;;;;;;;-144.8;100;1148.844;;;;
2019/07/02 06:27:31;;;;;;;10.2;5.7;;;;;;;-144.8;100;1148.844;;;;
2019/07/02 06:30:41;;;;;;;9.8;5.2;;;;;;;-144.8;100;1148.844;;;;
2019/07/02 06:33:52;;;;;;;10.6;5.7;;;;;;;-144.8;100;1148.844;;;;
2019/07/02 06:37:02;;;;;;;9.4;5.5;;;;;;;-144.8;100;1148.844;;;;
2019/07/02 06:40:13;;;;;;;11.5;5.5;;;;;;;-144.8;100;1148.844;;;;
2019/07/02 06:43:25;;;;;;;10.9;5.6;;;;;;;-144.8;100;1148.844;;;;
2019/07/02 06:46:36;;;;;;;10;5.7;;;;;;;-144.8;100;1148.844;;;;
2019/07/02 06:49:46;;;;;;;11.3;5.4;;;;;;;-144.8;100;1148.844;;;;
2019/07/02 06:52:57;;;;;;;10.8;6;;;;;;;-144.8;100;1148.844;;;;
2019/07/02 06:56:08;;;;;;;9.4;5.4;;;;;;;-144.8;100;1148.844;;;;
2019/07/02 06:59:18;;;;;;;9.7;5.7;;;;;;;-144.8;100;1148.844;;;;
2019/07/02 07:02:29;;;;;;;9.5;5.3;;;;;;;-144.8;100;1148.844;;;;
2019/07/02 07:05:39;;;;;;;12;5.5;;;;;;;-144.8;100;1148.844;;;;
2019/07/02 07:08:50;;;;;;;9.2;5.7;;;;;;;-144.8;100;1148.844;;;;
2019/07/02 07:12:00;;;;;;;10.9;5.6;;;;;;;-144.8;100;1148.844;;;;
2019/07/02 07:15:11;;;;;;;9.6;5.6;;;;;;;-144.8;100;1148.844;;;;
2019/07/02 07:18:22;;;;;;;10.3;5.5;;;;;;;-144.8;100;1148.844;;;;
2019/07/02 07:21:32;;;;;;;9.5;5.3;;;;;;;-144.8;100;1148.844;;;;
2019/07/02 07:24:43;;;;;;;10;5.7;;;;;;;-144.8;100;1148.844;;;;
2019/07/02 07:27:54;;;;;;;11.6;6.1;;;;;;;-144.8;100;1148.844;;;;
2019/07/02 07:31:04;;;;;;;10.9;5.7;;;;;;;-144.8;100;1148.844;;;;
2019/07/02 07:34:15;;;;;;;11.9;5.7;;;;;;;-144.8;100;1148.844;;;;
2019/07/02 07:37:25;;;;;;;10.9;5.8;;;;;;;-144.8;100;1148.844;;;;
2019/07/02 07:40:36;;;;;;;10.3;5.4;;;;;;;-144.8;100;1148.844;;;;
2019/07/02 07:43:46;;;;;;;10.4;5.4;;;;;;;-144.8;100;1148.844;;;;
2019/07/02 07:46:57;;;;;;;15.9;5.6;;;;;;;-144.8;100;1148.844;;;;
2019/07/02 07:50:07;;;;;;;8;5.6;;;;;;;-144.8;100;1148.844;;;;
2019/07/02 07:53:18;;;;;;;11.5;5.6;;;;;;;-144.8;100;1148.844;;;;
2019/07/02 07:56:29;;;;;;;9.6;5.4;;;;;;;-144.8;100;1148.844;;;;
2019/07/02 07:59:39;;;;;;;11.1;5.4;;;;;;;-144.8;100;1148.844;;;;
2019/07/02 08:02:50;;;;;;;10.5;5.5;;;;;;;-144.8;100;1148.844;;;;
2019/07/02 08:06:01;;;;;;;7.9;5.1;;;;;;;-144.8;100;1148.844;;;;
2019/07/02 08:09:11;;;;;;;13.5;6.2;;;;;;;-144.8;100;1148.844;;;;
2019/07/02 08:12:22;;;;;;;9.2;5.4;;;;;;;-144.8;100;1148.844;;;;
2019/07/02 08:15:32;;;;;;;8.4;4.9;;;;;;;-144.8;100;1148.844;;;;
2019/07/02 08:18:43;;;;;;;8.3;4.7;;;;;;;-144.8;100;1148.844;;;;
2019/07/02 08:21:54;;;;;;;7.5;4.6;;;;;;;-144.8;100;1148.844;;;;
2019/07/02 08:25:04;;;;;;;7;4.5;;;;;;;-144.8;100;1148.844;;;;
2019/07/02 08:28:15;;;;;;;7.8;5.1;;;;;;;-144.8;100;1148.844;;;;
2019/07/02 08:31:26;;;;;;;8.9;4.9;;;;;;;-144.8;100;1148.844;;;;
2019/07/02 08:34:36;;;;;;;8.1;4.8;;;;;;;-144.8;100;1148.844;;;;
2019/07/02 08:37:47;;;;;;;9.5;5.6;;;;;;;-144.8;100;1148.844;;;;
2019/07/02 08:40:57;;;;;;;10.1;5.6;;;;;;;-144.8;100;1148.844;;;;
2019/07/02 08:44:08;;;;;;;8.2;5.4;;;;;;;-144.8;100;1148.844;;;;
2019/07/02 08:47:19;;;;;;;10.2;6;;;;;;;-144.8;100;1148.844;;;;
2019/07/02 08:50:29;;;;;;;7.6;5.6;;;;;;;-144.8;100;1148.844;;;;
2019/07/02 08:53:39;;;;;;;11.4;6.2;;;;;;;-144.8;100;1148.844;;;;
2019/07/02 08:56:50;;;;;;;8.9;5.3;;;;;;;-144.8;100;1148.844;;;;
2019/07/02 09:00:00;;;;;;;10.5;5.7;;;;;;;-144.8;100;1148.844;;;;
2019/07/02 09:03:13;;;;;;;10.9;6;;;;;;;-144.8;100;1148.844;;;;
2019/07/02 09:06:24;;;;;;;8.9;5.1;;;;;;;-144.8;100;1148.844;;;;
2019/07/02 09:09:35;;;;;;;8.2;4.6;;;;;;;-144.8;100;1148.844;;;;
2019/07/02 09:12:45;;;;;;;9.7;4.8;;;;;;;-144.8;100;1148.844;;;;
2019/07/02 09:15:56;;;;;;;8.9;5;;;;;;;-144.8;100;1148.844;;;;
2019/07/02 09:19:06;;;;;;;9.1;5.2;;;;;;;-144.8;100;1148.844;;;;
2019/07/02 09:22:17;;;;;;;8.7;5.7;;;;;;;-144.8;100;1148.844;;;;
2019/07/02 09:25:27;;;;;;;10.8;6.1;;;;;;;-144.8;100;1148.844;;;;
2019/07/02 09:28:38;;;;;;;10.3;6;;;;;;;-144.8;100;1148.844;;;;
2019/07/02 09:31:49;;;;;;;10.5;5.9;;;;;;;-144.8;100;1148.844;;;;
2019/07/02 09:34:59;;;;;;;9.5;5.8;;;;;;;-144.8;100;1148.844;;;;
2019/07/02 09:38:10;;;;;;;8.2;5.1;;;;;;;-144.8;100;1148.844;;;;
2019/07/02 09:41:20;;;;;;;8.1;5.1;;;;;;;-144.8;100;1148.844;;;;
2019/07/02 09:44:31;;;;;;;7.8;4.5;;;;;;;-144.8;100;1148.844;;;;
2019/07/02 09:47:41;;;;;;;8.9;5;;;;;;;-144.8;100;1148.844;;;;
2019/07/02 09:50:52;;;;;;;9.7;4.9;;;;;;;-144.8;100;1148.844;;;;
2019/07/02 09:54:03;;;;;;;7.4;4.1;;;;;;;-144.8;100;1148.844;;;;
2019/07/02 09:57:13;;;;;;;8.3;4;;;;;;;-144.8;100;1148.844;;;;
2019/07/02 10:00:24;;;;;;;6.9;3.6;;;;;;;-144.8;100;1148.844;;;;
2019/07/02 10:04:07;;;;;;;8.5;3.5;;;;;;;-144.8;100;1148.844;;;;
2019/07/02 10:07:17;;;;;;;7.8;3.9;;;;;;;-144.8;100;1148.844;;;;
2019/07/02 10:10:28;;;;;;;6.3;3.8;;;;;;;-144.8;100;1148.844;;;;
2019/07/02 10:13:39;;;;;;;6.9;4.1;;;;;;;-144.8;100;1148.844;;;;
2019/07/02 10:16:49;;;;;;;8.9;4.5;;;;;;;-144.8;100;1148.844;;;;
2019/07/02 10:20:00;;;;;;;6.8;3.8;;;;;;;-144.8;100;1148.844;;;;
2019/07/02 10:23:11;;;;;;;5.4;3;;;;;;;-144.8;100;1148.844;;;;
2019/07/02 10:26:22;;;;;;;5.3;3;;;;;;;-144.8;100;1148.844;;;;
2019/07/02 10:29:32;;;;;;;8.5;3.7;;;;;;;-144.8;100;1148.844;;;;
2019/07/02 10:32:43;;;;;;;7.7;4;;;;;;;-144.8;100;1148.844;;;;
2019/07/02 10:35:53;;;;;;;6.4;3.9;;;;;;;-144.8;100;1148.844;;;;
2019/07/02 10:39:04;;;;;;;10.2;4.1;;;;;;;-144.8;100;1148.844;;;;
2019/07/02 10:42:15;;;;;;;11.3;4;;;;;;;-144.8;100;1148.844;;;;
2019/07/02 10:45:26;;;;;;;8.9;3.6;;;;;;;-144.8;100;1148.844;;;;
2019/07/02 10:48:36;;;;;;;7.6;4;;;;;;;-144.8;100;1148.844;;;;
2019/07/02 10:51:47;;;;;;;8.9;4.1;;;;;;;-144.8;100;1148.844;;;;
2019/07/02 10:54:57;;;;;;;8.6;4.2;;;;;;;-144.8;100;1148.844;;;;
2019/07/02 10:58:08;;;;;;;6.5;4;;;;;;;-144.8;100;1148.844;;;;
2019/07/02 11:01:18;;;;;;;6.6;3.3;;;;;;;-144.8;100;1148.844;;;;
2019/07/02 11:04:29;;;;;;;8.2;3.6;;;;;;;-144.8;100;1148.844;;;;
2019/07/02 11:07:40;;;;;;;6.7;3.7;;;;;;;-144.8;100;1148.844;;;;
2019/07/02 11:10:50;;;;;;;4.9;3.3;;;;;;;-144.8;100;1148.844;;;;
2019/07/02 11:14:01;;;;;;;5.6;3.2;;;;;;;-144.8;100;1148.844;;;;
2019/07/02 11:17:12;;;;;;;7.2;3.3;;;;;;;-144.8;100;1148.844;;;;
2019/07/02 11:20:22;;;;;;;5.7;3.3;;;;;;;-144.8;100;1148.844;;;;
2019/07/02 11:23:47;;;;;;;6.9;3.2;;;;;;;-144.8;100;1148.844;;;;
2019/07/02 11:26:57;;;;;;;5.6;3.2;;;;;;;-144.8;100;1148.844;;;;
2019/07/02 11:30:08;;;;;;;6.5;3.4;;;;;;;-144.8;100;1148.844;;;;
2019/07/02 11:33:19;;;;;;;7.4;3.6;;;;;;;-144.8;100;1148.844;;;;
2019/07/02 11:36:30;;;;;;;7.9;3.2;;;;;;;-144.8;100;1148.844;;;;
2019/07/02 11:39:40;;;;;;;7.5;3.1;;;;;;;-144.8;100;1148.844;;;;
2019/07/02 11:42:51;;;;;;;6.7;3.4;;;;;;;-144.8;100;1148.844;;;;
2019/07/02 11:46:02;;;;;;;5.2;3.2;;;;;;;-144.8;100;1148.844;;;;
2019/07/02 11:49:12;;;;;;;8.1;3.4;;;;;;;-144.8;100;1148.844;;;;
2019/07/02 11:52:23;;;;;;;6.3;3.6;;;;;;;-144.8;100;1148.844;;;;
2019/07/02 11:55:33;;;;;;;7.7;3.5;;;;;;;-144.8;100;1148.844;;;;
2019/07/02 11:58:44;;;;;;;7.8;3.3;;;;;;;-144.8;100;1148.844;;;;
2019/07/02 12:01:55;;;;;;;5.7;3.8;;;;;;;-144.8;100;1148.844;;;;
2019/07/02 12:05:05;;;;;;;6.2;3.2;;;;;;;-144.8;100;1148.844;;;;
2019/07/02 12:08:16;;;;;;;8.8;3.3;;;;;;;-144.8;100;1148.844;;;;
2019/07/02 12:11:27;;;;;;;9.5;3.4;;;;;;;-144.8;100;1148.844;;;;
2019/07/02 12:14:37;;;;;;;7.7;3.5;;;;;;;-144.8;100;1148.844;;;;
2019/07/02 12:17:48;;;;;;;6.2;3;;;;;;;-144.8;100;1148.844;;;;
2019/07/02 12:20:58;;;;;;;5.8;2.8;;;;;;;-144.8;100;1148.844;;;;
2019/07/02 12:24:09;;;;;;;5.7;2.9;;;;;;;-144.8;100;1148.844;;;;
2019/07/02 12:27:19;;;;;;;5.9;2.9;;;;;;;-144.8;100;1148.844;;;;
2019/07/02 12:30:30;;;;;;;9.1;3;;;;;;;-144.8;100;1148.844;;;;
2019/07/02 12:33:41;;;;;;;8.2;3.5;;;;;;;-144.8;100;1148.844;;;;
2019/07/02 12:36:51;;;;;;;7;2.9;;;;;;;-144.8;100;1148.844;;;;
2019/07/02 12:40:02;;;;;;;5.8;3.1;;;;;;;-144.8;100;1148.844;;;;
2019/07/02 12:42:27;;;;;;;5.7;2.8;;;;;;;-144.8;100;1148.844;;;;
2019/07/02 12:44:52;;;;;;;9.2;3.2;;;;;;;-144.8;100;1148.844;;;;
2019/07/02 12:47:17;;;;;;;4.2;3;;;;;;;-144.8;100;1148.844;;;;
2019/07/02 12:49:42;;;;;;;5.9;2.8;;;;;;;-144.8;100;1148.844;;;;
2019/07/02 12:52:07;;;;;;;7.4;2.7;;;;;;;-144.8;100;1148.844;;;;
2019/07/02 12:54:37;;;;;;;6.1;2.6;;;;;;;-144.8;100;1148.844;;;;
2019/07/02 12:57:02;;;;;;;6.8;2.9;;;;;;;-144.8;100;1148.844;;;;
2019/07/02 12:59:27;;;;;;;8.3;3.2;;;;;;;-144.8;100;1148.844;;;;
2019/07/02 13:01:52;;;;;;;7;2.8;;;;;;;-144.8;100;1148.844;;;;
2019/07/02 13:04:18;;;;;;;7.5;2.8;;;;;;;-144.8;100;1148.844;;;;
2019/07/02 13:06:43;;;;;;;6.4;2.9;;;;;;;-144.8;100;1148.844;;;;
2019/07/02 13:09:08;;;;;;;6.2;2.7;;;;;;;-144.8;100;1148.844;;;;
2019/07/02 13:11:33;;;;;;;5.2;2.3;;;;;;;-144.8;100;1148.844;;;;
2019/07/02 13:13:58;;;;;;;5;2.4;;;;;;;-144.8;100;1148.844;;;;
2019/07/02 13:16:23;;;;;;;6.2;2.5;;;;;;;-144.8;100;1148.844;;;;
2019/07/02 13:18:48;;;;;;;4.6;2.6;;;;;;;-144.8;100;1148.844;;;;
2019/07/02 13:21:13;;;;;;;8;2.6;;;;;;;-144.8;100;1148.844;;;;
2019/07/02 13:23:38;;;;;;;5.1;2.7;;;;;;;-144.8;100;1148.844;;;;
2019/07/02 13:26:03;;;;;;;4.9;2.4;;;;;;;-144.8;100;1148.844;;;;
2019/07/02 13:28:29;;;;;;;7;2.4;;;;;;;-144.8;100;1148.844;;;;
2019/07/02 13:30:54;;;;;;;4.1;2.4;;;;;;;-144.8;100;1148.844;;;;
2019/07/02 13:33:42;;;;;;;6.8;2.4;;;;;;;-144.8;100;1148.844;;;;
2019/07/02 13:36:07;;;;;;;5;2.3;;;;;;;-144.8;100;1148.844;;;;
2019/07/02 13:38:33;;;;;;;4.9;2.3;;;;;;;-144.8;100;1148.844;;;;
2019/07/02 13:40:58;;;;;;;4.9;2.4;;;;;;;-144.8;100;1148.844;;;;
2019/07/02 13:43:23;;;;;;;6.1;2.5;;;;;;;-144.8;100;1148.844;;;;
2019/07/02 13:45:48;;;;;;;5.6;2.4;;;;;;;-144.8;100;1148.844;;;;
2019/07/02 13:48:13;;;;;;;5;2.5;;;;;;;-144.8;100;1148.844;;;;
2019/07/02 13:50:39;;;;;;;5.1;2.3;;;;;;;-144.8;100;1148.844;;;;
2019/07/02 13:53:04;;;;;;;6;2.3;;;;;;;-144.8;100;1148.844;;;;
2019/07/02 13:55:29;;;;;;;6.3;2.6;;;;;;;-144.8;100;1148.844;;;;
2019/07/02 13:57:54;;;;;;;5.8;2.3;;;;;;;-144.8;100;1148.844;;;;
2019/07/02 14:00:19;;;;;;;3.6;2.1;;;;;;;-144.8;100;1148.844;;;;
2019/07/02 14:02:45;;;;;;;6.8;2.4;;;;;;;-144.8;100;1148.844;;;;
2019/07/02 14:05:10;;;;;;;3;2;;;;;;;-144.8;100;1148.844;;;;
2019/07/02 14:07:35;;;;;;;4.1;2.3;;;;;;;-144.8;100;1148.844;;;;
2019/07/02 14:10:16;;;;;;;6.9;2.3;;;;;;;-144.8;100;1148.844;;;;
2019/07/02 14:12:41;;;;;;;3.7;2.2;;;;;;;-144.8;100;1148.844;;;;
2019/07/02 14:15:06;;;;;;;3.6;2.4;;;;;;;-144.8;100;1148.844;;;;
2019/07/02 14:17:31;;;;;;;5.5;2.2;;;;;;;-144.8;100;1148.844;;;;
2019/07/02 14:19:57;;;;;;;6.7;2.7;;;;;;;-144.8;100;1148.844;;;;
2019/07/02 14:22:22;;;;;;;5.1;2.5;;;;;;;-144.8;100;1148.844;;;;
2019/07/02 14:24:47;;;;;;;4.8;2.2;;;;;;;-144.8;100;1148.844;;;;
2019/07/02 14:27:12;;;;;;;5.8;2.1;;;;;;;-144.8;100;1148.844;;;;
2019/07/02 14:29:37;;;;;;;5.9;2;;;;;;;-144.8;100;1148.844;;;;
2019/07/02 14:32:03;;;;;;;7.7;2.1;;;;;;;-144.8;100;1148.844;;;;
2019/07/02 14:34:28;;;;;;;6.6;2.4;;;;;;;-144.8;100;1148.844;;;;
2019/07/02 14:36:53;;;;;;;4.6;2.1;;;;;;;-144.8;100;1148.844;;;;
2019/07/02 14:39:18;;;;;;;4.6;2.3;;;;;;;-144.8;100;1148.844;;;;
2019/07/02 14:41:43;;;;;;;4.6;2.1;;;;;;;-144.8;100;1148.844;;;;
2019/07/02 14:44:09;;;;;;;4.9;2.2;;;;;;;-144.8;100;1148.844;;;;
2019/07/02 14:46:34;;;;;;;4.5;2.1;;;;;;;-144.8;100;1148.844;;;;
2019/07/02 14:48:59;;;;;;;7.1;2.3;;;;;;;-144.8;100;1148.844;;;;
2019/07/02 14:51:24;;;;;;;4.1;2.3;;;;;;;-144.8;100;1148.844;;;;
2019/07/02 14:53:49;;;;;;;4.6;2.4;;;;;;;-144.8;100;1148.844;;;;
2019/07/02 14:56:14;;;;;;;5.2;2.2;;;;;;;-144.8;100;1148.844;;;;
2019/07/02 14:58:39;;;;;;;5.7;2.2;;;;;;;-144.8;100;1148.844;;;;
2019/07/02 15:01:05;;;;;;;5.5;2.3;;;;;;;-144.8;100;1148.844;;;;
2019/07/02 15:03:30;;;;;;;6.3;2.1;;;;;;;-144.8;100;1148.844;;;;
2019/07/02 15:05:55;;;;;;;3.4;1.9;;;;;;;-144.8;100;1148.844;;;;
2019/07/02 15:08:23;;;;;;;3.7;2.1;;;;;;;-144.8;100;1148.844;;;;
2019/07/02 15:10:49;;;;;;;5.1;2.2;;;;;;;-144.8;100;1148.844;;;;
2019/07/02 15:13:14;;;;;;;4.7;2.2;;;;;;;-144.8;100;1148.844;;;;
2019/07/02 15:15:39;;;;;;;5.6;2;;;;;;;-144.8;100;1148.844;;;;
2019/07/02 15:18:04;;;;;;;5.1;2.2;;;;;;;-144.8;100;1148.844;;;;
2019/07/02 15:20:29;;;;;;;4.9;2;;;;;;;-144.8;100;1148.844;;;;
2019/07/02 15:22:54;;;;;;;3.7;1.9;;;;;;;-144.8;100;1148.844;;;;
2019/07/02 15:25:19;;;;;;;4.4;2.2;;;;;;;-144.8;100;1148.844;;;;
2019/07/02 15:27:45;;;;;;;4.5;1.9;;;;;;;-144.8;100;1148.844;;;;
2019/07/02 16:08:42;;;;;;;6.1;2;;;;;;;25.81;39.40137;962.4494;;;;
2019/07/02 16:11:51;;;;;;;4.7;2.1;;;;;;;25.93;38.80469;962.4526;;;;
2019/07/02 16:14:16;;;;;;;3.7;2.2;;;;;;;25.77;38.56445;962.4247;;;;
2019/07/02 16:16:41;;;;;;;5.4;2.2;;;;;;;25.72;39.44238;962.4189;;;;
2019/07/02 16:19:06;;;;;;;4.7;2.4;;;;;;;25.61;43.48145;962.4081;;;;
2019/07/02 16:21:31;;;;;;;4.6;2;;;;;;;25.59;39.32227;962.4141;;;;
2019/07/02 16:23:56;;;;;;;4;2.2;;;;;;;25.63;39.34961;962.4266;;;;
2019/07/02 16:26:21;;;;;;;4.4;2.3;;;;;;;25.57;40.20215;962.4137;;;;
2019/07/02 16:28:46;;;;;;;4;2.4;;;;;;;25.57;38.74902;962.4044;;;;
2019/07/02 16:31:11;;;;;;;5.8;2.2;;;;;;;25.47;38.82422;962.4058;;;;
2019/07/02 16:33:36;;;;;;;5.5;2.3;;;;;;;25.43;38.92676;962.4738;;;;
2019/07/02 16:36:02;;;;;;;5.9;2.1;;;;;;;25.42;39.06934;962.4459;;;;
2019/07/02 16:38:27;;;;;;;4.9;2.5;;;;;;;25.46;39.77637;962.4394;;;;
2019/07/02 16:40:52;;;;;;;5.6;2.3;;;;;;;25.33;39.38379;962.4386;;;;
2019/07/02 16:43:17;;;;;;;4.6;2.1;;;;;;;25.26;39.03223;962.3945;;;;
2019/07/02 16:45:42;;;;;;;8.6;2.4;;;;;;;25.12;40.29297;962.3932;;;;
2019/07/02 16:48:07;;;;;;;6.1;2.2;;;;;;;25.2;39.51563;962.3681;;;;
2019/07/02 16:50:32;;;;;;;4.3;2.3;;;;;;;25.13;39.15137;962.3965;;;;
2019/07/02 16:52:57;;;;;;;6;2;;;;;;;25.02;39.33203;962.368;;;;
2019/07/02 16:55:22;;;;;;;4.4;2.1;;;;;;;25.01;39.22461;962.3477;;;;
2019/07/02 16:57:48;;;;;;;4.5;1.9;;;;;;;25.02;39.62988;962.3706;;;;
2019/07/02 17:00:13;;;;;;;5.5;2.2;;;;;;;24.83;39.7793;962.3502;;;;
2019/07/02 17:02:38;;;;;;;5.3;2.4;;;;;;;24.79;39.5498;962.3823;;;;
2019/07/02 17:05:03;;;;;;;5.7;2.3;;;;;;;24.79;39.38281;962.364;;;;
2019/07/02 17:07:28;;;;;;;5.1;2.3;;;;;;;24.85;38.66309;962.3744;;;;
2019/07/02 17:09:53;;;;;;;4.1;2;;;;;;;24.78;39.43066;962.4019;;;;
2019/07/02 17:12:18;;;;;;;3.8;2.1;;;;;;;24.78;39.34766;962.3251;;;;
2019/07/02 17:14:43;;;;;;;5.6;2.2;;;;;;;24.71;40.42188;962.34;;;;
2019/07/02 17:17:08;;;;;;;4.8;2;;;;;;;24.71;39.81543;962.3166;;;;
2019/07/02 17:19:33;;;;;;;2.5;1.9;;;;;;;24.73;39.79395;962.2941;;;;
2019/07/02 17:21:59;;;;;;;8;2.5;;;;;;;24.63;40.02344;962.2567;;;;
2019/07/02 17:24:24;;;;;;;4.8;2;;;;;;;24.69;39.42285;962.2896;;;;
2019/07/02 17:26:49;;;;;;;5.9;2.1;;;;;;;24.66;38.77734;962.3272;;;;
2019/07/02 17:29:14;;;;;;;5.5;2.3;;;;;;;24.67;39.23047;962.2684;;;;
2019/07/02 17:31:39;;;;;;;3.5;1.9;;;;;;;24.49;39.53516;962.2877;;;;
2019/07/02 17:34:04;;;;;;;6.1;2.2;;;;;;;24.51;40.11914;962.2645;;;;
2019/07/02 17:36:29;;;;;;;4.6;2.3;;;;;;;24.52;41.9502;962.245;;;;
2019/07/02 17:38:54;;;;;;;5.9;2.3;;;;;;;24.52;40.16797;962.31;;;;
2019/07/02 17:41:19;;;;;;;5.3;2.3;;;;;;;24.56;40.68164;962.3214;;;;
2019/07/02 17:43:44;;;;;;;4.2;2.8;;;;;;;24.6;40.875;962.3401;;;;
2019/07/02 17:46:10;;;;;;;4.8;2.3;;;;;;;24.6;40.51953;962.3883;;;;
2019/07/02 17:48:35;;;;;;;5.3;3;;;;;;;24.49;40.40234;962.3943;;;;
2019/07/02 17:51:00;;;;;;;6.9;4;;;;;;;24.46;41.38574;962.4418;;;;
2019/07/02 17:53:25;;;;;;;68.1;59.3;;;;;;;24.52;40.72559;962.4594;;;;
2019/07/02 17:55:50;;;;;;;10.7;8.7;;;;;;;24.53;40.92871;962.4283;;;;
2019/07/02 17:58:15;;;;;;;7.6;5.2;;;;;;;24.49;41.02051;962.5217;;;;
2019/07/02 18:00:40;;;;;;;8.9;4.1;;;;;;;24.37;42.23242;962.4534;;;;
2019/07/02 18:03:05;;;;;;;5;3.1;;;;;;;24.32;41.81152;962.456;;;;
2019/07/02 18:05:30;;;;;;;7.4;5.2;;;;;;;24.3;42.59375;962.4833;;;;
2019/07/02 18:07:55;;;;;;;25.9;23.3;;;;;;;24.24;41.08008;962.4216;;;;
2019/07/02 18:10:20;;;;;;;9.3;7.8;;;;;;;24.3;40.88281;962.4942;;;;
2019/07/02 18:12:46;;;;;;;8.5;6.1;;;;;;;24.42;40.11035;962.4956;;;;
2019/07/02 18:15:11;;;;;;;7.6;5.2;;;;;;;24.37;41.97168;962.5144;;;;
2019/07/02 18:17:36;;;;;;;12.7;11;;;;;;;24.4;40.78613;962.52;;;;
2019/07/02 18:20:01;;;;;;;8.8;6.2;;;;;;;24.24;43.01563;962.4942;;;;
2019/07/02 18:22:26;;;;;;;43.2;38.6;;;;;;;24.15;43.58887;962.5084;;;;
2019/07/02 18:24:51;;;;;;;6.6;4.4;;;;;;;24.06;44.57617;962.5854;;;;
2019/07/02 18:27:17;;;;;;;5.4;2.6;;;;;;;23.95;44.02051;962.5311;;;;
2019/07/02 18:29:42;;;;;;;8.3;2.8;;;;;;;23.84;43.62891;962.5725;;;;